sensor_id;sensor_type;location;lat;lon;timestamp;pressure;altitude;pressure_sealevel;temperature;humidity
32298;BME280;18782;48.984;8.548;2024-02-26T00:01:34;97990.59;;;8.07;68.78
32298;BME280;18782;48.984;8.548;2024-02-26T00:04:02;97992.31;;;8.05;69.00
32298;BME280;18782;48.984;8.548;2024-02-26T00:06:31;97984.59;;;8.02;70.08
32298;BME280;18782;48.984;8.548;2024-02-26T00:08:58;97992.28;;;8.02;70.27
32298;BME280;18782;48.984;8.548;2024-02-26T00:11:27;97992.28;;;8.02;70.64
32298;BME280;18782;48.984;8.548;2024-02-26T00:13:55;97992.28;;;8.02;71.71
32298;BME280;18782;48.984;8.548;2024-02-26T00:16:22;97998.28;;;8.00;72.33
32298;BME280;18782;48.984;8.548;2024-02-26T00:18:51;98000.81;;;7.95;74.63
32298;BME280;18782;48.984;8.548;2024-02-26T00:21:19;98000.78;;;7.89;76.29
32298;BME280;18782;48.984;8.548;2024-02-26T00:23:49;97998.19;;;7.81;76.70
32298;BME280;18782;48.984;8.548;2024-02-26T00:26:16;98007.56;;;7.76;75.54
32298;BME280;18782;48.984;8.548;2024-02-26T00:28:44;98010.09;;;7.69;74.84
32298;BME280;18782;48.984;8.548;2024-02-26T00:31:12;98014.34;;;7.70;76.29
32298;BME280;18782;48.984;8.548;2024-02-26T00:33:40;98021.19;;;7.71;78.49
32298;BME280;18782;48.984;8.548;2024-02-26T00:36:09;98022.03;;;7.68;78.35
32298;BME280;18782;48.984;8.548;2024-02-26T00:38:37;98021.16;;;7.65;78.29
32298;BME280;18782;48.984;8.548;2024-02-26T00:41:06;98032.28;;;7.68;79.33
32298;BME280;18782;48.984;8.548;2024-02-26T00:43:33;98010.94;;;7.68;80.28
32298;BME280;18782;48.984;8.548;2024-02-26T00:46:01;98012.66;;;7.69;80.47
32298;BME280;18782;48.984;8.548;2024-02-26T00:48:28;98009.22;;;7.67;80.83
32298;BME280;18782;48.984;8.548;2024-02-26T00:50:56;98010.06;;;7.64;81.19
32298;BME280;18782;48.984;8.548;2024-02-26T00:53:25;98002.31;;;7.56;81.18
32298;BME280;18782;48.984;8.548;2024-02-26T00:55:53;98005.72;;;7.48;81.18
32298;BME280;18782;48.984;8.548;2024-02-26T00:58:20;98006.56;;;7.48;81.78
32298;BME280;18782;48.984;8.548;2024-02-26T01:00:48;97992.91;;;7.49;81.94
32298;BME280;18782;48.984;8.548;2024-02-26T01:03:16;97997.19;;;7.50;82.24
32298;BME280;18782;48.984;8.548;2024-02-26T01:05:45;98000.59;;;7.48;83.22
32298;BME280;18782;48.984;8.548;2024-02-26T01:08:13;98005.69;;;7.43;83.03
32298;BME280;18782;48.984;8.548;2024-02-26T01:10:42;98003.13;;;7.46;84.93
32298;BME280;18782;48.984;8.548;2024-02-26T01:13:09;98005.69;;;7.46;86.72
32298;BME280;18782;48.984;8.548;2024-02-26T01:15:37;98003.97;;;7.42;88.50
32298;BME280;18782;48.984;8.548;2024-02-26T01:18:05;98009.91;;;7.38;88.23
32298;BME280;18782;48.984;8.548;2024-02-26T01:20:32;98011.59;;;7.33;88.57
32298;BME280;18782;48.984;8.548;2024-02-26T01:23:00;98020.16;;;7.37;90.43
32298;BME280;18782;48.984;8.548;2024-02-26T01:25:28;98022.69;;;7.35;92.53
32298;BME280;18782;48.984;8.548;2024-02-26T01:27:57;98007.34;;;7.38;94.67
32298;BME280;18782;48.984;8.548;2024-02-26T01:30:24;97999.66;;;7.33;95.65
32298;BME280;18782;48.984;8.548;2024-02-26T01:32:52;98001.34;;;7.31;98.00
32298;BME280;18782;48.984;8.548;2024-02-26T01:35:20;97999.63;;;7.27;98.92
32298;BME280;18782;48.984;8.548;2024-02-26T01:37:48;97990.22;;;7.26;94.80
32298;BME280;18782;48.984;8.548;2024-02-26T01:40:16;98009.94;;;7.44;84.51
32298;BME280;18782;48.984;8.548;2024-02-26T01:42:46;98026.16;;;7.46;87.11
32298;BME280;18782;48.984;8.548;2024-02-26T01:45:16;98024.50;;;7.48;81.29
32298;BME280;18782;48.984;8.548;2024-02-26T01:47:50;98022.81;;;7.53;81.98
32298;BME280;18782;48.984;8.548;2024-02-26T01:50:19;98021.09;;;7.52;82.30
32298;BME280;18782;48.984;8.548;2024-02-26T01:52:49;98022.78;;;7.50;82.63
32298;BME280;18782;48.984;8.548;2024-02-26T01:55:18;98035.59;;;7.49;82.49
32298;BME280;18782;48.984;8.548;2024-02-26T01:57:48;98043.25;;;7.47;82.39
32298;BME280;18782;48.984;8.548;2024-02-26T02:00:18;98057.72;;;7.45;81.14
32298;BME280;18782;48.984;8.548;2024-02-26T02:02:46;98056.91;;;7.49;82.38
32298;BME280;18782;48.984;8.548;2024-02-26T02:05:15;98071.41;;;7.50;86.22
32298;BME280;18782;48.984;8.548;2024-02-26T02:07:44;98051.78;;;7.49;86.38
32298;BME280;18782;48.984;8.548;2024-02-26T02:10:13;98054.34;;;7.48;85.91
32298;BME280;18782;48.984;8.548;2024-02-26T02:12:41;98056.94;;;7.52;89.39
32298;BME280;18782;48.984;8.548;2024-02-26T02:15:09;98061.19;;;7.49;90.56
32298;BME280;18782;48.984;8.548;2024-02-26T02:17:38;98061.19;;;7.50;89.50
32298;BME280;18782;48.984;8.548;2024-02-26T02:20:08;98063.75;;;7.49;87.81
32298;BME280;18782;48.984;8.548;2024-02-26T02:22:37;98060.28;;;7.45;88.90
32298;BME280;18782;48.984;8.548;2024-02-26T02:25:06;98053.50;;;7.47;88.74
32298;BME280;18782;48.984;8.548;2024-02-26T02:27:33;98046.72;;;7.52;89.05
32298;BME280;18782;48.984;8.548;2024-02-26T02:30:02;98054.38;;;7.52;89.11
32298;BME280;18782;48.984;8.548;2024-02-26T02:32:31;98050.97;;;7.53;89.27
32298;BME280;18782;48.984;8.548;2024-02-26T02:34:59;98044.13;;;7.51;89.87
32298;BME280;18782;48.984;8.548;2024-02-26T02:37:26;98039.00;;;7.49;90.93
32298;BME280;18782;48.984;8.548;2024-02-26T02:39:55;98037.28;;;7.48;93.46
32298;BME280;18782;48.984;8.548;2024-02-26T02:42:24;98030.44;;;7.46;95.23
32298;BME280;18782;48.984;8.548;2024-02-26T02:44:52;98033.00;;;7.44;96.29
32298;BME280;18782;48.984;8.548;2024-02-26T02:47:19;98041.53;;;7.43;97.65
32298;BME280;18782;48.984;8.548;2024-02-26T02:49:47;98041.53;;;7.43;100.00
32298;BME280;18782;48.984;8.548;2024-02-26T02:52:15;98046.63;;;7.45;100.00
32298;BME280;18782;48.984;8.548;2024-02-26T02:54:42;98043.25;;;7.47;100.00
32298;BME280;18782;48.984;8.548;2024-02-26T02:57:11;98044.94;;;7.42;100.00
32298;BME280;18782;48.984;8.548;2024-02-26T02:59:39;98043.19;;;7.41;100.00
32298;BME280;18782;48.984;8.548;2024-02-26T03:02:07;98041.50;;;7.40;100.00
32298;BME280;18782;48.984;8.548;2024-02-26T03:04:34;98048.31;;;7.41;100.00
32298;BME280;18782;48.984;8.548;2024-02-26T03:07:02;98040.63;;;7.40;100.00
32298;BME280;18782;48.984;8.548;2024-02-26T03:09:30;98036.34;;;7.34;100.00
32298;BME280;18782;48.984;8.548;2024-02-26T03:11:58;98038.91;;;7.31;100.00
32298;BME280;18782;48.984;8.548;2024-02-26T03:14:28;98028.59;;;7.25;100.00
32298;BME280;18782;48.984;8.548;2024-02-26T03:16:56;98028.56;;;7.19;100.00
32298;BME280;18782;48.984;8.548;2024-02-26T03:19:23;98030.22;;;7.11;100.00
32298;BME280;18782;48.984;8.548;2024-02-26T03:21:52;98019.00;;;6.96;100.00
32298;BME280;18782;48.984;8.548;2024-02-26T03:24:20;98020.69;;;6.91;100.00
32298;BME280;18782;48.984;8.548;2024-02-26T03:26:48;98016.41;;;6.93;100.00
32298;BME280;18782;48.984;8.548;2024-02-26T03:29:17;98017.31;;;6.97;100.00
32298;BME280;18782;48.984;8.548;2024-02-26T03:31:46;98008.78;;;6.99;100.00
32298;BME280;18782;48.984;8.548;2024-02-26T03:34:13;98015.63;;;7.00;100.00
32298;BME280;18782;48.984;8.548;2024-02-26T03:36:41;98002.81;;;6.99;100.00
32298;BME280;18782;48.984;8.548;2024-02-26T03:39:10;98009.59;;;6.94;100.00
32298;BME280;18782;48.984;8.548;2024-02-26T03:41:38;98016.47;;;6.99;100.00
32298;BME280;18782;48.984;8.548;2024-02-26T03:44:05;98008.69;;;6.84;100.00
32298;BME280;18782;48.984;8.548;2024-02-26T03:46:33;98003.56;;;6.84;100.00
32298;BME280;18782;48.984;8.548;2024-02-26T03:49:02;97999.31;;;6.88;100.00
32298;BME280;18782;48.984;8.548;2024-02-26T03:51:31;98000.19;;;6.87;100.00
32298;BME280;18782;48.984;8.548;2024-02-26T03:53:59;97983.97;;;6.86;100.00
32298;BME280;18782;48.984;8.548;2024-02-26T03:56:27;97979.72;;;6.88;100.00
32298;BME280;18782;48.984;8.548;2024-02-26T03:58:55;97980.59;;;6.93;100.00
32298;BME280;18782;48.984;8.548;2024-02-26T04:01:22;97974.63;;;6.90;100.00
32298;BME280;18782;48.984;8.548;2024-02-26T04:03:50;97966.13;;;6.89;100.00
32298;BME280;18782;48.984;8.548;2024-02-26T04:06:20;97963.56;;;6.91;100.00
32298;BME280;18782;48.984;8.548;2024-02-26T04:08:49;97970.41;;;6.96;100.00
32298;BME280;18782;48.984;8.548;2024-02-26T04:11:16;97958.47;;;6.97;100.00
32298;BME280;18782;48.984;8.548;2024-02-26T04:13:45;97961.88;;;6.97;100.00
32298;BME280;18782;48.984;8.548;2024-02-26T04:16:15;97957.63;;;6.96;100.00
32298;BME280;18782;48.984;8.548;2024-02-26T04:18:43;97961.00;;;6.92;100.00
32298;BME280;18782;48.984;8.548;2024-02-26T04:21:11;97964.38;;;6.88;100.00
32298;BME280;18782;48.984;8.548;2024-02-26T04:23:40;97969.53;;;6.91;100.00
32298;BME280;18782;48.984;8.548;2024-02-26T04:26:08;97967.81;;;6.93;100.00
32298;BME280;18782;48.984;8.548;2024-02-26T04:28:36;97974.69;;;6.97;100.00
32298;BME280;18782;48.984;8.548;2024-02-26T04:31:03;97983.25;;;7.01;100.00
32298;BME280;18782;48.984;8.548;2024-02-26T04:33:34;97989.16;;;6.97;100.00
32298;BME280;18782;48.984;8.548;2024-02-26T04:36:02;97992.59;;;6.97;100.00
32298;BME280;18782;48.984;8.548;2024-02-26T04:38:30;97992.59;;;6.99;100.00
32298;BME280;18782;48.984;8.548;2024-02-26T04:40:59;97990.88;;;6.99;100.00
32298;BME280;18782;48.984;8.548;2024-02-26T04:43:27;97990.06;;;7.00;100.00
32298;BME280;18782;48.984;8.548;2024-02-26T04:45:54;97992.63;;;7.02;100.00
32298;BME280;18782;48.984;8.548;2024-02-26T04:48:23;97996.00;;;6.99;100.00
32298;BME280;18782;48.984;8.548;2024-02-26T04:50:51;98000.22;;;6.91;100.00
32298;BME280;18782;48.984;8.548;2024-02-26T04:53:19;98000.19;;;6.88;100.00
32298;BME280;18782;48.984;8.548;2024-02-26T04:55:46;97996.81;;;6.89;100.00
32298;BME280;18782;48.984;8.548;2024-02-26T04:58:15;98001.03;;;6.86;100.00
32298;BME280;18782;48.984;8.548;2024-02-26T05:00:43;98004.44;;;6.88;100.00
32298;BME280;18782;48.984;8.548;2024-02-26T05:03:11;98003.59;;;6.87;100.00
32298;BME280;18782;48.984;8.548;2024-02-26T05:05:40;98007.81;;;6.82;100.00
32298;BME280;18782;48.984;8.548;2024-02-26T05:08:08;98011.22;;;6.83;100.00
32298;BME280;18782;48.984;8.548;2024-02-26T05:10:36;98018.94;;;6.87;100.00
32298;BME280;18782;48.984;8.548;2024-02-26T05:13:07;98017.25;;;6.89;100.00
32298;BME280;18782;48.984;8.548;2024-02-26T05:18:08;98029.25;;;6.96;100.00
32298;BME280;18782;48.984;8.548;2024-02-26T05:20:36;98027.53;;;6.97;100.00
32298;BME280;18782;48.984;8.548;2024-02-26T05:23:04;98032.66;;;6.98;100.00
32298;BME280;18782;48.984;8.548;2024-02-26T05:25:32;98033.50;;;6.97;100.00
32298;BME280;18782;48.984;8.548;2024-02-26T05:27:59;98024.13;;;6.96;100.00
32298;BME280;18782;48.984;8.548;2024-02-26T05:30:27;98032.66;;;6.97;100.00
32298;BME280;18782;48.984;8.548;2024-02-26T05:32:55;98030.94;;;6.97;100.00
32298;BME280;18782;48.984;8.548;2024-02-26T05:35:24;98030.06;;;6.94;100.00
32298;BME280;18782;48.984;8.548;2024-02-26T05:37:52;98037.72;;;6.89;100.00
32298;BME280;18782;48.984;8.548;2024-02-26T05:40:20;98037.72;;;6.89;100.00
32298;BME280;18782;48.984;8.548;2024-02-26T05:42:48;98043.66;;;6.87;100.00
32298;BME280;18782;48.984;8.548;2024-02-26T05:45:15;98041.09;;;6.88;100.00
32298;BME280;18782;48.984;8.548;2024-02-26T05:47:43;98046.22;;;6.85;100.00
32298;BME280;18782;48.984;8.548;2024-02-26T05:50:12;98044.50;;;6.87;100.00
32298;BME280;18782;48.984;8.548;2024-02-26T05:52:42;98038.63;;;6.94;100.00
32298;BME280;18782;48.984;8.548;2024-02-26T05:55:10;98045.47;;;7.00;100.00
32298;BME280;18782;48.984;8.548;2024-02-26T05:57:39;98048.91;;;7.00;100.00
32298;BME280;18782;48.984;8.548;2024-02-26T06:00:07;98042.94;;;7.01;100.00
32298;BME280;18782;48.984;8.548;2024-02-26T06:02:39;98048.00;;;6.98;100.00
32298;BME280;18782;48.984;8.548;2024-02-26T06:05:07;98044.59;;;6.98;100.00
32298;BME280;18782;48.984;8.548;2024-02-26T06:07:35;98042.88;;;6.98;100.00
32298;BME280;18782;48.984;8.548;2024-02-26T06:10:05;98044.66;;;7.05;100.00
32298;BME280;18782;48.984;8.548;2024-02-26T06:12:35;98060.88;;;7.06;100.00
32298;BME280;18782;48.984;8.548;2024-02-26T06:15:03;98060.03;;;7.05;100.00
32298;BME280;18782;48.984;8.548;2024-02-26T06:17:31;98060.03;;;7.05;100.00
32298;BME280;18782;48.984;8.548;2024-02-26T06:19:59;98060.03;;;7.07;100.00
32298;BME280;18782;48.984;8.548;2024-02-26T06:22:27;98071.09;;;7.06;100.00
32298;BME280;18782;48.984;8.548;2024-02-26T06:24:55;98080.50;;;7.05;100.00
32298;BME280;18782;48.984;8.548;2024-02-26T06:27:24;98083.88;;;7.04;100.00
32298;BME280;18782;48.984;8.548;2024-02-26T06:29:52;98082.19;;;7.06;100.00
32298;BME280;18782;48.984;8.548;2024-02-26T06:32:23;98076.22;;;7.06;100.00
32298;BME280;18782;48.984;8.548;2024-02-26T06:34:51;98085.56;;;7.04;100.00
32298;BME280;18782;48.984;8.548;2024-02-26T06:37:18;98083.88;;;7.04;100.00
32298;BME280;18782;48.984;8.548;2024-02-26T06:39:46;98085.59;;;7.05;100.00
32298;BME280;18782;48.984;8.548;2024-02-26T06:42:14;98089.91;;;7.11;100.00
32298;BME280;18782;48.984;8.548;2024-02-26T06:44:43;98090.00;;;7.25;100.00
32298;BME280;18782;48.984;8.548;2024-02-26T06:47:12;98089.28;;;7.41;100.00
32298;BME280;18782;48.984;8.548;2024-02-26T06:49:39;98091.91;;;7.47;100.00
32298;BME280;18782;48.984;8.548;2024-02-26T06:52:07;98087.63;;;7.51;100.00
32298;BME280;18782;48.984;8.548;2024-02-26T06:54:35;98092.84;;;7.65;100.00
32298;BME280;18782;48.984;8.548;2024-02-26T06:57:03;98097.16;;;7.70;100.00
32298;BME280;18782;48.984;8.548;2024-02-26T06:59:31;98102.28;;;7.70;100.00
32298;BME280;18782;48.984;8.548;2024-02-26T07:02:00;98103.13;;;7.68;100.00
32298;BME280;18782;48.984;8.548;2024-02-26T07:04:27;98101.50;;;7.79;100.00
32298;BME280;18782;48.984;8.548;2024-02-26T07:06:55;98108.34;;;7.83;100.00
32298;BME280;18782;48.984;8.548;2024-02-26T07:09:23;98114.34;;;7.85;100.00
32298;BME280;18782;48.984;8.548;2024-02-26T07:11:51;98110.09;;;7.90;100.00
32298;BME280;18782;48.984;8.548;2024-02-26T07:14:19;98111.81;;;7.91;100.00
32298;BME280;18782;48.984;8.548;2024-02-26T07:16:47;98122.06;;;7.94;100.00
32298;BME280;18782;48.984;8.548;2024-02-26T07:19:16;98122.06;;;7.94;100.00
32298;BME280;18782;48.984;8.548;2024-02-26T07:21:44;98114.41;;;8.00;100.00
32298;BME280;18782;48.984;8.548;2024-02-26T07:24:11;98125.53;;;7.99;100.00
32298;BME280;18782;48.984;8.548;2024-02-26T07:26:39;98118.66;;;7.95;100.00
32298;BME280;18782;48.984;8.548;2024-02-26T07:29:06;98115.22;;;7.93;100.00
32298;BME280;18782;48.984;8.548;2024-02-26T07:31:34;98117.78;;;7.89;100.00
32298;BME280;18782;48.984;8.548;2024-02-26T07:34:02;98122.00;;;7.85;100.00
32298;BME280;18782;48.984;8.548;2024-02-26T07:36:31;98125.44;;;7.87;100.00
32298;BME280;18782;48.984;8.548;2024-02-26T07:38:59;98128.00;;;7.85;100.00
32298;BME280;18782;48.984;8.548;2024-02-26T07:41:27;98127.19;;;7.97;100.00
32298;BME280;18782;48.984;8.548;2024-02-26T07:43:55;98123.81;;;8.01;100.00
32298;BME280;18782;48.984;8.548;2024-02-26T07:46:22;98123.00;;;8.05;100.00
32298;BME280;18782;48.984;8.548;2024-02-26T07:48:50;98128.19;;;8.21;100.00
32298;BME280;18782;48.984;8.548;2024-02-26T07:51:18;98117.06;;;8.17;100.00
32298;BME280;18782;48.984;8.548;2024-02-26T07:53:47;98122.16;;;8.13;100.00
32298;BME280;18782;48.984;8.548;2024-02-26T07:56:15;98117.06;;;8.16;100.00
32298;BME280;18782;48.984;8.548;2024-02-26T07:58:42;98129.06;;;8.29;100.00
32298;BME280;18782;48.984;8.548;2024-02-26T08:01:13;98118.81;;;8.29;100.00
32298;BME280;18782;48.984;8.548;2024-02-26T08:03:40;98120.53;;;8.33;100.00
32298;BME280;18782;48.984;8.548;2024-02-26T08:06:08;98118.88;;;8.38;100.00
32298;BME280;18782;48.984;8.548;2024-02-26T08:08:36;98116.38;;;8.46;100.00
32298;BME280;18782;48.984;8.548;2024-02-26T08:11:05;98118.06;;;8.48;100.00
32298;BME280;18782;48.984;8.548;2024-02-26T08:13:34;98118.06;;;8.47;100.00
32298;BME280;18782;48.984;8.548;2024-02-26T08:16:02;98125.78;;;8.51;100.00
32298;BME280;18782;48.984;8.548;2024-02-26T08:18:30;98130.94;;;8.57;100.00
32298;BME280;18782;48.984;8.548;2024-02-26T08:20:58;98137.78;;;8.65;100.00
32298;BME280;18782;48.984;8.548;2024-02-26T08:23:25;98131.81;;;8.72;100.00
32298;BME280;18782;48.984;8.548;2024-02-26T08:25:53;98130.13;;;8.81;100.00
32298;BME280;18782;48.984;8.548;2024-02-26T08:28:22;98132.72;;;8.92;100.00
32298;BME280;18782;48.984;8.548;2024-02-26T08:30:51;98132.72;;;9.01;100.00
32298;BME280;18782;48.984;8.548;2024-02-26T08:33:18;98139.56;;;9.02;100.00
32298;BME280;18782;48.984;8.548;2024-02-26T08:35:46;98144.75;;;9.14;100.00
32298;BME280;18782;48.984;8.548;2024-02-26T08:38:14;98143.03;;;9.23;100.00
32298;BME280;18782;48.984;8.548;2024-02-26T08:40:42;98143.91;;;9.29;100.00
32298;BME280;18782;48.984;8.548;2024-02-26T08:43:10;98135.34;;;9.43;100.00
32298;BME280;18782;48.984;8.548;2024-02-26T08:45:39;98141.34;;;9.55;100.00
32298;BME280;18782;48.984;8.548;2024-02-26T08:48:07;98143.03;;;9.62;100.00
32298;BME280;18782;48.984;8.548;2024-02-26T08:50:35;98146.44;;;9.71;100.00
32298;BME280;18782;48.984;8.548;2024-02-26T08:53:03;98147.28;;;9.92;100.00
32298;BME280;18782;48.984;8.548;2024-02-26T08:55:33;98146.38;;;10.18;100.00
32298;BME280;18782;48.984;8.548;2024-02-26T08:58:01;98149.72;;;10.51;100.00
32298;BME280;18782;48.984;8.548;2024-02-26T09:00:28;98159.94;;;10.67;100.00
32298;BME280;18782;48.984;8.548;2024-02-26T09:02:59;98156.47;;;10.73;96.69
32298;BME280;18782;48.984;8.548;2024-02-26T09:05:30;98171.97;;;10.65;94.36
32298;BME280;18782;48.984;8.548;2024-02-26T09:07:58;98171.13;;;10.65;95.06
32298;BME280;18782;48.984;8.548;2024-02-26T09:10:26;98164.22;;;10.71;95.57
32298;BME280;18782;48.984;8.548;2024-02-26T09:12:53;98162.47;;;10.78;95.74
32298;BME280;18782;48.984;8.548;2024-02-26T09:15:21;98154.75;;;10.77;93.79
32298;BME280;18782;48.984;8.548;2024-02-26T09:17:49;98167.59;;;10.80;90.45
32298;BME280;18782;48.984;8.548;2024-02-26T09:20:19;98161.59;;;10.75;90.88
32298;BME280;18782;48.984;8.548;2024-02-26T09:22:48;98171.06;;;10.76;92.93
32298;BME280;18782;48.984;8.548;2024-02-26T09:25:16;98163.31;;;10.77;93.93
32298;BME280;18782;48.984;8.548;2024-02-26T09:27:43;98158.16;;;10.82;93.17
32298;BME280;18782;48.984;8.548;2024-02-26T09:30:12;98165.88;;;10.86;94.49
32298;BME280;18782;48.984;8.548;2024-02-26T09:32:40;98166.66;;;10.94;98.63
32298;BME280;18782;48.984;8.548;2024-02-26T09:35:08;98154.63;;;11.00;100.00
32298;BME280;18782;48.984;8.548;2024-02-26T09:37:37;98156.28;;;11.08;100.00
32298;BME280;18782;48.984;8.548;2024-02-26T09:40:06;98159.63;;;11.22;97.42
32298;BME280;18782;48.984;8.548;2024-02-26T09:42:37;98157.88;;;11.29;95.40
32298;BME280;18782;48.984;8.548;2024-02-26T09:45:10;98162.94;;;11.40;93.99
32298;BME280;18782;48.984;8.548;2024-02-26T09:47:39;98161.16;;;11.46;93.81
32298;BME280;18782;48.984;8.548;2024-02-26T09:50:09;98159.38;;;11.53;94.56
32298;BME280;18782;48.984;8.548;2024-02-26T09:52:41;98176.50;;;11.63;93.70
32298;BME280;18782;48.984;8.548;2024-02-26T09:55:09;98175.72;;;11.55;92.81
32298;BME280;18782;48.984;8.548;2024-02-26T09:57:37;98185.09;;;11.62;93.71
32298;BME280;18782;48.984;8.548;2024-02-26T10:00:08;98183.28;;;11.73;92.66
32298;BME280;18782;48.984;8.548;2024-02-26T10:02:38;98195.16;;;11.94;90.86
32298;BME280;18782;48.984;8.548;2024-02-26T10:05:10;98202.03;;;11.94;90.61
32298;BME280;18782;48.984;8.548;2024-02-26T10:07:42;98197.78;;;11.88;87.18
32298;BME280;18782;48.984;8.548;2024-02-26T10:10:10;98193.50;;;11.89;88.73
32298;BME280;18782;48.984;8.548;2024-02-26T10:12:38;98192.66;;;11.87;87.63
32298;BME280;18782;48.984;8.548;2024-02-26T10:15:06;98192.69;;;11.85;89.05
32298;BME280;18782;48.984;8.548;2024-02-26T10:17:34;98198.69;;;11.83;88.40
32298;BME280;18782;48.984;8.548;2024-02-26T10:20:13;98201.25;;;11.87;87.61
32298;BME280;18782;48.984;8.548;2024-02-26T10:22:44;98202.91;;;11.93;88.29
32298;BME280;18782;48.984;8.548;2024-02-26T10:25:12;98205.41;;;12.02;86.95
32298;BME280;18782;48.984;8.548;2024-02-26T10:27:40;98200.19;;;12.08;86.03
32298;BME280;18782;48.984;8.548;2024-02-26T10:30:19;98202.66;;;12.19;84.78
32298;BME280;18782;48.984;8.548;2024-02-26T10:32:49;98194.81;;;12.33;87.60
32298;BME280;18782;48.984;8.548;2024-02-26T10:35:17;98209.97;;;12.60;84.37
32298;BME280;18782;48.984;8.548;2024-02-26T10:37:49;98208.91;;;12.76;80.89
32298;BME280;18782;48.984;8.548;2024-02-26T10:40:17;98208.13;;;12.68;80.58
32298;BME280;18782;48.984;8.548;2024-02-26T10:42:44;98218.34;;;12.80;80.80
32298;BME280;18782;48.984;8.548;2024-02-26T10:45:14;98230.44;;;12.75;79.86
32298;BME280;18782;48.984;8.548;2024-02-26T10:47:42;98225.94;;;12.93;81.64
32298;BME280;18782;48.984;8.548;2024-02-26T10:50:12;98240.50;;;13.00;78.10
32298;BME280;18782;48.984;8.548;2024-02-26T10:52:41;98231.78;;;13.07;78.56
32298;BME280;18782;48.984;8.548;2024-02-26T10:55:15;98235.06;;;13.18;79.73
32298;BME280;18782;48.984;8.548;2024-02-26T10:57:45;98226.25;;;13.35;78.73
32298;BME280;18782;48.984;8.548;2024-02-26T11:00:15;98232.56;;;13.75;77.41
32298;BME280;18782;48.984;8.548;2024-02-26T11:02:44;98229.06;;;14.29;76.04
32298;BME280;18782;48.984;8.548;2024-02-26T11:05:13;98231.03;;;14.64;75.01
32298;BME280;18782;48.984;8.548;2024-02-26T11:07:42;98221.75;;;14.96;71.08
32298;BME280;18782;48.984;8.548;2024-02-26T11:10:12;98232.56;;;15.16;71.20
32298;BME280;18782;48.984;8.548;2024-02-26T11:12:41;98232.69;;;15.10;71.07
32298;BME280;18782;48.984;8.548;2024-02-26T11:15:09;98229.25;;;15.08;71.94
32298;BME280;18782;48.984;8.548;2024-02-26T11:17:37;98232.84;;;15.02;73.77
32298;BME280;18782;48.984;8.548;2024-02-26T11:20:09;98243.78;;;15.17;70.89
32298;BME280;18782;48.984;8.548;2024-02-26T11:22:39;98238.88;;;15.43;69.62
32298;BME280;18782;48.984;8.548;2024-02-26T11:25:07;98238.53;;;15.58;70.73
32298;BME280;18782;48.984;8.548;2024-02-26T11:27:42;98242.41;;;15.79;70.88
32298;BME280;18782;48.984;8.548;2024-02-26T11:30:11;98236.84;;;15.95;68.04
32298;BME280;18782;48.984;8.548;2024-02-26T11:32:39;98235.28;;;15.87;66.57
32298;BME280;18782;48.984;8.548;2024-02-26T11:35:08;98235.88;;;15.99;63.40
32298;BME280;18782;48.984;8.548;2024-02-26T11:37:37;98234.97;;;16.00;60.05
32298;BME280;18782;48.984;8.548;2024-02-26T11:40:10;98224.22;;;16.15;59.88
32298;BME280;18782;48.984;8.548;2024-02-26T11:42:44;98229.75;;;16.35;60.00
32298;BME280;18782;48.984;8.548;2024-02-26T11:48:15;98227.09;;;16.69;58.05
32298;BME280;18782;48.984;8.548;2024-02-26T11:50:47;98226.38;;;16.95;57.40
32298;BME280;18782;48.984;8.548;2024-02-26T11:53:22;98228.19;;;17.23;56.86
32298;BME280;18782;48.984;8.548;2024-02-26T11:56:22;98235.03;;;17.54;57.59
32298;BME280;18782;48.984;8.548;2024-02-26T11:59:01;98235.88;;;17.84;54.94
32298;BME280;18782;48.984;8.548;2024-02-26T12:01:45;98242.47;;;17.94;54.50
32298;BME280;18782;48.984;8.548;2024-02-26T12:04:17;98229.03;;;18.08;54.83
32298;BME280;18782;48.984;8.548;2024-02-26T12:06:51;98224.72;;;18.07;54.10
32298;BME280;18782;48.984;8.548;2024-02-26T12:09:35;98237.31;;;18.19;54.50
32298;BME280;18782;48.984;8.548;2024-02-26T12:12:05;98233.13;;;18.65;53.13
32298;BME280;18782;48.984;8.548;2024-02-26T12:14:37;98241.44;;;18.99;52.02
32298;BME280;18782;48.984;8.548;2024-02-26T12:17:06;98245.44;;;19.55;48.31
32298;BME280;18782;48.984;8.548;2024-02-26T12:19:35;98241.34;;;19.71;49.44
32298;BME280;18782;48.984;8.548;2024-02-26T12:22:12;98243.28;;;20.10;50.01
32298;BME280;18782;48.984;8.548;2024-02-26T12:24:40;98240.34;;;20.38;48.22
32298;BME280;18782;48.984;8.548;2024-02-26T12:27:08;98236.31;;;20.31;48.00
32298;BME280;18782;48.984;8.548;2024-02-26T12:29:37;98243.06;;;20.57;48.29
32298;BME280;18782;48.984;8.548;2024-02-26T12:32:05;98246.91;;;20.69;48.34
32298;BME280;18782;48.984;8.548;2024-02-26T12:34:34;98245.13;;;21.08;45.67
32298;BME280;18782;48.984;8.548;2024-02-26T12:37:02;98240.56;;;20.93;44.64
32298;BME280;18782;48.984;8.548;2024-02-26T12:39:31;98249.25;;;20.75;47.22
32298;BME280;18782;48.984;8.548;2024-02-26T12:41:59;98242.13;;;20.97;44.73
32298;BME280;18782;48.984;8.548;2024-02-26T12:44:26;98247.03;;;20.66;44.50
32298;BME280;18782;48.984;8.548;2024-02-26T12:47:01;98251.00;;;20.33;45.63
32298;BME280;18782;48.984;8.548;2024-02-26T12:49:29;98254.06;;;20.43;47.44
32298;BME280;18782;48.984;8.548;2024-02-26T12:51:57;98248.47;;;20.73;45.86
32298;BME280;18782;48.984;8.548;2024-02-26T12:54:28;98255.41;;;20.74;49.55
32298;BME280;18782;48.984;8.548;2024-02-26T12:56:56;98252.75;;;20.94;50.10
32298;BME280;18782;48.984;8.548;2024-02-26T12:59:24;98257.97;;;21.33;45.26
32298;BME280;18782;48.984;8.548;2024-02-26T13:01:56;98255.88;;;21.02;44.07
32298;BME280;18782;48.984;8.548;2024-02-26T13:04:26;98271.84;;;20.96;45.76
32298;BME280;18782;48.984;8.548;2024-02-26T13:06:58;98267.50;;;20.34;45.98
32298;BME280;18782;48.984;8.548;2024-02-26T13:09:32;98270.78;;;19.97;47.25
32298;BME280;18782;48.984;8.548;2024-02-26T13:12:00;98268.91;;;20.00;47.35
32298;BME280;18782;48.984;8.548;2024-02-26T13:14:30;98270.59;;;19.58;47.19
32298;BME280;18782;48.984;8.548;2024-02-26T13:17:01;98266.22;;;19.35;47.64